createdAt,value
2018-02-22T00:00:07.188Z,6.00
2018-02-22T00:02:34.202Z,5.90
2018-02-22T00:05:01.199Z,6.00
2018-02-22T00:07:28.229Z,6.00
2018-02-22T00:09:55.297Z,6.00
2018-02-22T00:12:22.429Z,6.00
2018-02-22T00:14:49.463Z,6.00
2018-02-22T00:17:17.247Z,6.00
2018-02-22T00:19:44.249Z,6.00
2018-02-22T00:22:17.045Z,6.00
2018-02-22T00:24:44.091Z,5.90
2018-02-22T00:27:11.180Z,6.00
2018-02-22T00:29:38.188Z,6.00
2018-02-22T00:32:05.421Z,5.90
2018-02-22T00:34:32.420Z,5.90
2018-02-22T00:36:59.453Z,6.00
2018-02-22T00:39:26.578Z,5.90
2018-02-22T00:41:53.595Z,6.00
2018-02-22T00:44:20.658Z,5.90
2018-02-22T00:46:47.805Z,5.90
2018-02-22T00:49:14.871Z,5.90
2018-02-22T00:51:41.892Z,5.90
2018-02-22T00:54:08.897Z,5.90
2018-02-22T00:56:35.904Z,5.90
2018-02-22T00:59:03.012Z,5.90
2018-02-22T01:01:30.078Z,5.90
2018-02-22T01:03:57.084Z,5.90
2018-02-22T01:06:24.896Z,5.90
2018-02-22T01:08:52.749Z,5.90
2018-02-22T01:11:19.827Z,5.90
2018-02-22T01:13:46.863Z,5.90
2018-02-22T01:16:13.886Z,5.90
2018-02-22T01:18:40.899Z,5.90
2018-02-22T01:21:08.695Z,5.90
2018-02-22T01:23:36.546Z,5.90
2018-02-22T01:26:03.642Z,5.90
2018-02-22T01:28:30.659Z,5.90
2018-02-22T01:30:57.680Z,5.90
2018-02-22T01:33:24.684Z,5.90
2018-02-22T01:35:51.725Z,5.90
2018-02-22T01:38:18.731Z,5.90
2018-02-22T01:40:45.741Z,5.90
2018-02-22T01:43:13.585Z,5.90
2018-02-22T01:45:40.655Z,5.90
2018-02-22T01:48:07.724Z,5.90
2018-02-22T01:50:34.760Z,5.90
2018-02-22T01:53:01.755Z,5.90
2018-02-22T01:55:28.778Z,5.90
2018-02-22T01:57:55.784Z,5.90
2018-02-22T02:00:23.557Z,5.90
2018-02-22T02:02:50.633Z,5.90
2018-02-22T02:05:17.694Z,5.90
2018-02-22T02:07:45.460Z,5.90
2018-02-22T02:10:12.455Z,5.90
2018-02-22T02:12:39.508Z,5.90
2018-02-22T02:15:06.517Z,5.90
2018-02-22T02:17:33.524Z,5.90
2018-02-22T02:20:00.527Z,5.90
2018-02-22T02:22:27.686Z,5.90
2018-02-22T02:24:54.716Z,5.90
2018-02-22T02:27:22.614Z,5.90
2018-02-22T02:29:49.623Z,5.80
2018-02-22T02:32:16.625Z,5.90
2018-02-22T02:34:43.706Z,5.90
2018-02-22T02:37:10.699Z,5.90
2018-02-22T02:39:37.709Z,5.90
2018-02-22T02:42:04.799Z,5.90
2018-02-22T02:44:31.916Z,5.90
2018-02-22T02:46:58.981Z,5.80
2018-02-22T02:49:27.328Z,5.90
2018-02-22T02:51:54.359Z,5.90
2018-02-22T02:54:21.379Z,5.90
2018-02-22T02:56:49.168Z,5.80
2018-02-22T02:59:16.243Z,5.80
2018-02-22T03:01:43.338Z,5.80
2018-02-22T03:04:10.338Z,5.80
2018-02-22T03:06:37.352Z,5.80
2018-02-22T03:09:04.350Z,5.80
2018-02-22T03:11:31.470Z,5.80
2018-02-22T03:13:58.502Z,5.80
2018-02-22T03:16:25.534Z,5.80
2018-02-22T03:18:52.544Z,5.80
2018-02-22T03:21:19.624Z,5.80
2018-02-22T03:23:46.678Z,5.80
2018-02-22T03:26:13.692Z,5.80
2018-02-22T03:28:41.495Z,5.80
2018-02-22T03:31:08.705Z,5.80
2018-02-22T03:33:35.748Z,5.80
2018-02-22T03:36:02.839Z,5.80
2018-02-22T03:38:29.974Z,5.80
2018-02-22T03:40:57.016Z,5.80
2018-02-22T03:43:24.882Z,5.80
2018-02-22T03:45:51.903Z,5.80
2018-02-22T03:48:18.905Z,5.80
2018-02-22T03:50:45.888Z,5.80
2018-02-22T03:53:12.921Z,5.80
2018-02-22T03:55:39.929Z,5.80
2018-02-22T03:58:06.994Z,5.80
2018-02-22T04:00:34.002Z,5.80
2018-02-22T04:03:01.003Z,5.80
2018-02-22T04:05:28.054Z,5.80
2018-02-22T04:07:55.089Z,5.80
2018-02-22T04:10:22.155Z,5.80
2018-02-22T04:12:49.159Z,5.70
2018-02-22T04:15:16.219Z,5.70
2018-02-22T04:17:43.230Z,5.70
2018-02-22T04:20:10.232Z,5.80
2018-02-22T04:22:38.135Z,5.70
2018-02-22T04:25:05.902Z,5.80
2018-02-22T04:27:33.680Z,5.70
2018-02-22T04:30:00.747Z,5.70
2018-02-22T04:32:27.866Z,5.70
2018-02-22T04:34:55.663Z,5.80
2018-02-22T04:37:23.426Z,5.70
2018-02-22T04:39:51.191Z,5.70
2018-02-22T04:42:18.201Z,5.70
2018-02-22T04:44:45.209Z,5.70
2018-02-22T04:47:12.389Z,5.70
2018-02-22T04:49:39.399Z,5.70
2018-02-22T04:52:06.450Z,5.70
2018-02-22T04:54:33.545Z,5.70
2018-02-22T04:57:00.650Z,5.70
2018-02-22T04:59:27.689Z,5.70
2018-02-22T05:01:54.717Z,5.70
2018-02-22T05:04:21.716Z,5.70
2018-02-22T05:06:49.509Z,5.70
2018-02-22T05:09:16.563Z,5.70
2018-02-22T05:11:43.602Z,5.70
2018-02-22T05:14:11.611Z,5.70
2018-02-22T05:16:39.338Z,5.70
2018-02-22T05:19:06.339Z,5.70
2018-02-22T05:21:33.427Z,5.70
2018-02-22T05:24:00.452Z,5.70
2018-02-22T05:26:27.454Z,5.70
2018-02-22T05:28:55.313Z,5.70
2018-02-22T05:31:22.309Z,5.70
2018-02-22T05:33:50.172Z,5.70
2018-02-22T05:36:17.201Z,5.70
2018-02-22T05:38:44.976Z,5.70
2018-02-22T05:41:12.748Z,5.70
2018-02-22T05:43:39.853Z,5.60
2018-02-22T05:46:07.729Z,5.60
2018-02-22T05:48:34.733Z,5.60
2018-02-22T05:51:02.497Z,5.70
2018-02-22T05:53:30.996Z,5.60
2018-02-22T05:55:57.987Z,5.60
2018-02-22T05:58:25.041Z,5.70
2018-02-22T06:00:52.046Z,5.70
2018-02-22T06:03:19.064Z,5.70
2018-02-22T06:05:46.097Z,5.70
2018-02-22T06:08:13.130Z,5.70
2018-02-22T06:10:40.178Z,5.80
2018-02-22T06:13:07.968Z,5.70
2018-02-22T06:15:35.732Z,5.70
2018-02-22T06:18:04.253Z,5.70
2018-02-22T06:20:32.019Z,5.70
2018-02-22T06:22:59.099Z,5.70
2018-02-22T06:25:26.110Z,5.70
2018-02-22T06:27:53.957Z,5.70
2018-02-22T06:30:20.951Z,5.70
2018-02-22T06:32:47.965Z,5.60
2018-02-22T06:35:14.974Z,5.70
2018-02-22T06:37:42.009Z,5.70
2018-02-22T06:40:09.200Z,5.60
2018-02-22T06:42:36.201Z,5.70
2018-02-22T06:45:04.053Z,5.60
2018-02-22T06:47:31.073Z,5.60
2018-02-22T06:49:58.152Z,5.60
2018-02-22T06:52:25.288Z,5.60
2018-02-22T06:54:52.273Z,5.60
2018-02-22T06:57:19.287Z,5.60
2018-02-22T06:59:46.316Z,5.60
2018-02-22T07:02:13.334Z,5.60
2018-02-22T07:04:40.371Z,5.60
2018-02-22T07:07:07.481Z,5.60
2018-02-22T07:09:34.498Z,5.60
2018-02-22T07:12:01.527Z,5.60
2018-02-22T07:14:28.551Z,5.60
2018-02-22T07:16:55.694Z,5.60
2018-02-22T07:19:22.759Z,5.60
2018-02-22T07:21:49.796Z,5.60
2018-02-22T07:24:16.812Z,5.60
2018-02-22T07:26:43.914Z,5.50
2018-02-22T07:29:11.679Z,5.60
2018-02-22T07:31:38.673Z,5.60
2018-02-22T07:34:05.714Z,5.60
2018-02-22T07:36:33.616Z,5.60
2018-02-22T07:39:00.696Z,5.50
2018-02-22T07:41:28.450Z,5.60
2018-02-22T07:43:55.440Z,5.60
2018-02-22T07:46:22.452Z,5.60
2018-02-22T07:48:50.216Z,5.60
2018-02-22T07:51:17.217Z,5.60
2018-02-22T07:53:44.397Z,5.60
2018-02-22T07:56:11.456Z,5.60
2018-02-22T07:58:38.453Z,5.70
2018-02-22T08:01:05.455Z,5.60
2018-02-22T08:03:33.342Z,5.60
2018-02-22T08:06:00.491Z,5.60
2018-02-22T08:08:27.528Z,5.60
2018-02-22T08:10:54.628Z,5.60
2018-02-22T08:13:21.618Z,5.60
2018-02-22T08:15:48.818Z,5.60
2018-02-22T08:18:16.050Z,5.60
2018-02-22T08:20:43.049Z,5.60
2018-02-22T08:23:10.072Z,5.60
2018-02-22T08:25:37.073Z,5.60
2018-02-22T08:28:04.195Z,5.60
2018-02-22T08:30:31.309Z,5.60
2018-02-22T08:32:58.299Z,5.60
2018-02-22T08:35:25.333Z,5.60
2018-02-22T08:37:52.469Z,5.60
2018-02-22T08:40:19.470Z,5.60
2018-02-22T08:42:47.265Z,5.60
2018-02-22T08:45:14.367Z,5.60
2018-02-22T08:47:41.470Z,5.60
2018-02-22T08:50:08.521Z,5.60
2018-02-22T08:52:35.548Z,5.60
2018-02-22T08:55:02.565Z,5.60
2018-02-22T08:57:29.573Z,5.60
2018-02-22T08:59:57.349Z,5.60
2018-02-22T09:02:25.129Z,5.60
2018-02-22T09:04:52.161Z,5.60
2018-02-22T09:07:19.191Z,5.50
2018-02-22T09:09:46.215Z,5.60
2018-02-22T09:12:13.215Z,5.50
2018-02-22T09:14:40.282Z,5.50
2018-02-22T09:17:07.292Z,5.50
2018-02-22T09:19:34.394Z,5.50
2018-02-22T09:22:01.398Z,5.50
2018-02-22T09:24:28.469Z,5.50
2018-02-22T09:26:55.503Z,5.50
2018-02-22T09:29:22.528Z,5.50
2018-02-22T09:31:49.621Z,5.50
2018-02-22T09:34:17.401Z,5.50
2018-02-22T09:36:44.430Z,5.50
2018-02-22T09:39:11.449Z,5.50
2018-02-22T09:41:38.560Z,5.50
2018-02-22T09:44:06.443Z,5.50
2018-02-22T09:46:33.495Z,5.50
2018-02-22T09:49:00.552Z,5.50
2018-02-22T09:51:27.578Z,5.50
2018-02-22T09:53:54.640Z,5.50
2018-02-22T09:56:22.423Z,5.50
2018-02-22T09:58:49.468Z,5.50
2018-02-22T10:01:16.676Z,5.50
2018-02-22T10:03:45.184Z,5.50
2018-02-22T10:06:12.423Z,5.50
2018-02-22T10:08:40.158Z,5.60
2018-02-22T10:11:07.175Z,5.50
2018-02-22T10:13:34.217Z,5.60
2018-02-22T10:16:03.094Z,5.60
2018-02-22T10:18:30.140Z,5.60
2018-02-22T10:20:57.154Z,5.60
2018-02-22T10:23:24.195Z,5.60
2018-02-22T10:25:51.184Z,5.60
2018-02-22T10:28:18.978Z,5.60
2018-02-22T10:30:45.970Z,5.60
2018-02-22T10:33:13.871Z,5.50
2018-02-22T10:35:41.728Z,5.50
2018-02-22T10:38:08.816Z,5.60
2018-02-22T10:40:35.868Z,5.60
2018-02-22T10:43:02.881Z,5.60
2018-02-22T10:45:30.769Z,5.60
2018-02-22T10:47:57.814Z,5.60
2018-02-22T10:50:24.854Z,5.60
2018-02-22T10:52:51.977Z,5.60
2018-02-22T10:55:18.988Z,5.60
2018-02-22T10:57:46.778Z,5.60
2018-02-22T11:00:14.577Z,5.60
2018-02-22T11:02:46.051Z,5.60
2018-02-22T11:05:13.810Z,5.60
2018-02-22T11:07:41.656Z,5.60
2018-02-22T11:10:08.650Z,5.60
2018-02-22T11:12:35.760Z,5.60
2018-02-22T11:15:02.854Z,5.60
2018-02-22T11:17:29.876Z,5.60
2018-02-22T11:19:56.998Z,5.60
2018-02-22T11:22:24.087Z,5.60
2018-02-22T11:24:51.100Z,5.60
2018-02-22T11:27:18.130Z,5.70
2018-02-22T11:29:46.022Z,5.70
2018-02-22T11:32:13.021Z,5.70
2018-02-22T11:34:40.056Z,5.70
2018-02-22T11:37:07.081Z,5.70
2018-02-22T11:39:34.894Z,5.70
2018-02-22T11:42:01.953Z,5.70
2018-02-22T11:44:28.973Z,5.70
2018-02-22T11:46:56.290Z,5.70
2018-02-22T11:49:24.172Z,5.70
2018-02-22T11:51:51.698Z,5.70
2018-02-22T11:54:18.712Z,5.70
2018-02-22T11:56:45.755Z,5.70
2018-02-22T11:59:12.779Z,5.70
2018-02-22T12:01:39.886Z,5.70
2018-02-22T12:04:06.898Z,5.70
2018-02-22T12:06:34.665Z,5.80
2018-02-22T12:09:01.661Z,5.80
2018-02-22T12:11:29.538Z,5.70
2018-02-22T12:13:57.325Z,5.80
2018-02-22T12:16:24.385Z,5.80
2018-02-22T12:18:51.404Z,5.80
2018-02-22T12:21:18.397Z,5.80
2018-02-22T12:23:45.488Z,5.80
2018-02-22T12:26:12.484Z,5.80
2018-02-22T12:28:39.497Z,5.80
2018-02-22T12:31:06.499Z,5.80
2018-02-22T12:33:33.603Z,5.80
2018-02-22T12:36:00.683Z,5.80
2018-02-22T12:38:27.722Z,5.80
2018-02-22T12:40:54.839Z,5.80
2018-02-22T12:43:21.903Z,5.80
2018-02-22T12:45:48.933Z,5.80
2018-02-22T12:48:15.978Z,5.80
2018-02-22T12:50:43.027Z,5.80
2018-02-22T12:53:10.277Z,5.80
2018-02-22T12:55:37.282Z,5.90
2018-02-22T12:58:04.365Z,5.80
2018-02-22T13:00:31.476Z,5.80
2018-02-22T13:02:58.622Z,5.90
2018-02-22T13:05:25.653Z,5.80
2018-02-22T13:07:52.691Z,5.90
2018-02-22T13:10:19.805Z,5.90
2018-02-22T13:12:46.851Z,5.90
2018-02-22T13:15:13.907Z,5.90
2018-02-22T13:17:40.915Z,5.90
2018-02-22T13:20:09.471Z,5.90
2018-02-22T13:22:36.484Z,5.90
2018-02-22T13:25:03.502Z,5.90
2018-02-22T13:27:30.534Z,5.90
2018-02-22T13:29:57.531Z,5.90
2018-02-22T13:32:24.530Z,5.90
2018-02-22T13:34:52.312Z,5.90
2018-02-22T13:37:26.245Z,6.00
2018-02-22T13:39:53.248Z,6.00
2018-02-22T13:42:20.559Z,5.90
2018-02-22T13:44:53.534Z,5.90
2018-02-22T13:47:21.327Z,6.00
2018-02-22T13:49:54.312Z,6.00
2018-02-22T13:52:21.444Z,6.00
2018-02-22T13:54:48.402Z,6.00
2018-02-22T13:57:16.194Z,6.00
2018-02-22T13:59:43.294Z,6.00
2018-02-22T14:02:16.177Z,6.00
2018-02-22T14:04:43.230Z,6.00
2018-02-22T14:07:10.285Z,6.00
2018-02-22T14:09:37.281Z,6.00
2018-02-22T14:12:04.373Z,6.00
2018-02-22T14:14:31.383Z,6.00
2018-02-22T14:16:58.424Z,6.00
2018-02-22T14:19:25.445Z,6.10
2018-02-22T14:21:53.252Z,6.10
2018-02-22T14:24:20.272Z,6.00
2018-02-22T14:26:47.281Z,6.10
2018-02-22T14:29:14.323Z,6.10
2018-02-22T14:31:41.461Z,6.10
2018-02-22T14:34:09.216Z,6.10
2018-02-22T14:36:36.230Z,6.10
2018-02-22T14:39:03.993Z,6.10
2018-02-22T14:41:31.200Z,6.10
2018-02-22T14:43:58.234Z,6.10
2018-02-22T14:46:25.229Z,6.10
2018-02-22T14:48:52.232Z,6.10
2018-02-22T14:51:20.077Z,6.10
2018-02-22T14:53:47.079Z,6.10
2018-02-22T14:56:14.087Z,6.10
2018-02-22T14:58:41.195Z,6.10
2018-02-22T15:01:08.195Z,6.10
2018-02-22T15:03:35.270Z,6.10
2018-02-22T15:06:02.271Z,6.10
2018-02-22T15:08:29.272Z,6.10
2018-02-22T15:10:56.302Z,6.10
2018-02-22T15:13:23.466Z,6.10
2018-02-22T15:15:50.499Z,6.20
2018-02-22T15:18:17.498Z,6.10
2018-02-22T15:20:44.576Z,6.20
2018-02-22T15:23:11.556Z,6.20
2018-02-22T15:25:38.543Z,6.20
2018-02-22T15:28:05.574Z,6.20
2018-02-22T15:30:33.344Z,6.20
2018-02-22T15:33:01.135Z,6.20
2018-02-22T15:35:28.189Z,6.20
2018-02-22T15:37:55.180Z,6.20
2018-02-22T15:40:22.193Z,6.20
2018-02-22T15:42:49.994Z,6.20
2018-02-22T15:45:17.764Z,6.20
2018-02-22T15:47:44.784Z,6.20
2018-02-22T15:50:11.787Z,6.20
2018-02-22T15:52:38.904Z,6.20
2018-02-22T15:55:06.677Z,6.20
2018-02-22T15:57:33.689Z,6.20
2018-02-22T16:00:01.482Z,6.20
2018-02-22T16:02:28.546Z,6.20
2018-02-22T16:04:55.602Z,6.20
2018-02-22T16:07:22.734Z,6.20
2018-02-22T16:09:50.829Z,6.20
2018-02-22T16:12:17.881Z,6.20
2018-02-22T16:14:44.886Z,6.20
2018-02-22T16:17:12.261Z,6.20
2018-02-22T16:19:39.350Z,6.20
2018-02-22T16:22:06.440Z,6.20
2018-02-22T16:24:34.299Z,6.20
2018-02-22T16:27:01.366Z,6.20
2018-02-22T16:29:28.418Z,6.20
2018-02-22T16:31:55.424Z,6.20
2018-02-22T16:34:22.416Z,6.10
2018-02-22T16:36:49.518Z,6.20
2018-02-22T16:39:16.531Z,6.20
2018-02-22T16:41:44.302Z,6.10
2018-02-22T16:44:12.239Z,6.20
2018-02-22T16:46:40.166Z,6.20
2018-02-22T16:49:07.257Z,6.20
2018-02-22T16:51:34.514Z,6.20
2018-02-22T16:54:01.637Z,6.20
2018-02-22T16:56:28.685Z,6.20
2018-02-22T16:58:55.772Z,6.20
2018-02-22T17:01:22.782Z,6.20
2018-02-22T17:03:49.808Z,6.20
2018-02-22T17:06:16.812Z,6.20
2018-02-22T17:08:43.805Z,6.20
2018-02-22T17:11:11.666Z,6.20
2018-02-22T17:13:38.741Z,6.20
2018-02-22T17:16:05.821Z,6.20
2018-02-22T17:18:32.894Z,6.20
2018-02-22T17:20:59.893Z,6.20
2018-02-22T17:23:27.812Z,6.20
2018-02-22T17:26:01.312Z,6.20
2018-02-22T17:28:34.027Z,6.20
2018-02-22T17:31:06.902Z,6.20
2018-02-22T17:33:34.680Z,6.20
2018-02-22T17:36:02.518Z,6.20
2018-02-22T17:38:30.545Z,6.20
2018-02-22T17:41:04.196Z,6.20
2018-02-22T17:43:31.989Z,6.20
2018-02-22T17:45:58.974Z,6.20
2018-02-22T17:48:26.736Z,6.20
2018-02-22T17:50:53.842Z,6.20
2018-02-22T17:53:21.037Z,6.20
2018-02-22T17:55:48.187Z,6.20
2018-02-22T17:58:15.257Z,6.20
2018-02-22T18:00:42.748Z,6.20
2018-02-22T18:03:10.077Z,6.20
2018-02-22T18:05:37.065Z,6.20
2018-02-22T18:08:04.093Z,6.20
2018-02-22T18:10:31.124Z,6.20
2018-02-22T18:16:35.806Z,6.20
2018-02-22T18:19:02.788Z,6.20
2018-02-22T18:21:29.778Z,6.20
2018-02-22T18:23:57.702Z,6.20
2018-02-22T18:26:24.683Z,6.20
2018-02-22T18:28:51.679Z,6.20
2018-02-22T18:31:18.669Z,6.20
2018-02-22T18:33:46.442Z,6.20
2018-02-22T18:36:14.430Z,6.20
2018-02-22T18:38:47.843Z,6.20
2018-02-22T18:41:17.322Z,6.20
2018-02-22T18:43:44.368Z,6.20
2018-02-22T18:46:11.365Z,6.20
2018-02-22T18:48:38.361Z,6.20
2018-02-22T18:51:06.124Z,6.20
2018-02-22T18:53:33.152Z,6.20
2018-02-22T18:56:00.134Z,6.20
2018-02-22T18:58:27.120Z,6.20
2018-02-22T19:00:54.947Z,6.20
2018-02-22T19:03:21.969Z,6.10
2018-02-22T19:05:48.953Z,6.20
2018-02-22T19:08:15.949Z,6.10
2018-02-22T19:10:42.941Z,6.20
2018-02-22T19:13:09.932Z,6.10
2018-02-22T19:15:37.683Z,6.20
2018-02-22T19:18:05.444Z,6.20
2018-02-22T19:20:33.207Z,6.10
2018-02-22T19:23:00.957Z,6.20
2018-02-22T19:25:27.951Z,6.10
2018-02-22T19:27:54.953Z,6.10
2018-02-22T19:30:21.948Z,6.10
2018-02-22T19:32:48.941Z,6.10
2018-02-22T19:35:15.928Z,6.10
2018-02-22T19:37:42.917Z,6.20
2018-02-22T19:40:09.906Z,6.20
2018-02-22T19:42:36.896Z,6.20
2018-02-22T19:45:03.881Z,6.10
2018-02-22T19:47:31.647Z,6.10
2018-02-22T19:49:59.403Z,6.10
2018-02-22T19:52:27.165Z,6.10
2018-02-22T19:54:54.924Z,6.10
2018-02-22T19:57:21.920Z,6.10
2018-02-22T19:59:48.906Z,6.10
2018-02-22T20:02:15.896Z,6.10
2018-02-22T20:04:42.883Z,6.10
2018-02-22T20:07:09.932Z,6.10
2018-02-22T20:09:36.930Z,6.10
2018-02-22T20:12:03.915Z,6.10
2018-02-22T20:14:30.909Z,6.10
2018-02-22T20:16:58.651Z,6.10
2018-02-22T20:19:25.647Z,6.10
2018-02-22T20:21:52.636Z,6.10
2018-02-22T20:24:19.648Z,6.10
2018-02-22T20:26:46.631Z,6.10
2018-02-22T20:29:13.613Z,6.10
2018-02-22T20:31:40.609Z,6.10
2018-02-22T20:34:07.616Z,6.10
2018-02-22T20:36:34.597Z,6.10
2018-02-22T20:39:01.588Z,6.10
2018-02-22T20:41:28.576Z,6.10
2018-02-22T20:43:55.594Z,6.10
2018-02-22T20:46:22.573Z,6.10
2018-02-22T20:48:49.570Z,6.10
2018-02-22T20:51:22.088Z,6.10
2018-02-22T20:53:49.851Z,6.10
2018-02-22T20:56:16.840Z,6.10
2018-02-22T20:58:44.608Z,6.10
2018-02-22T21:01:12.366Z,6.10
2018-02-22T21:03:40.130Z,6.10
2018-02-22T21:06:07.887Z,6.10
2018-02-22T21:08:34.870Z,6.10
2018-02-22T21:11:01.876Z,6.10
2018-02-22T21:13:30.133Z,6.10
2018-02-22T21:15:57.112Z,6.00
2018-02-22T21:18:24.887Z,6.10
2018-02-22T21:20:51.879Z,6.00
2018-02-22T21:23:18.883Z,6.10
2018-02-22T21:25:45.876Z,6.10
2018-02-22T21:28:12.864Z,6.10
2018-02-22T21:30:39.856Z,6.10
2018-02-22T21:33:06.848Z,6.10
2018-02-22T21:35:34.595Z,6.00
2018-02-22T21:38:02.344Z,6.10
2018-02-22T21:40:29.341Z,6.00
2018-02-22T21:42:56.327Z,6.10
2018-02-22T21:45:23.323Z,6.10
2018-02-22T21:47:50.315Z,6.10
2018-02-22T21:50:17.308Z,6.00
2018-02-22T21:52:44.295Z,6.10
2018-02-22T21:55:12.061Z,6.00
2018-02-22T21:57:39.038Z,6.00
2018-02-22T22:00:06.791Z,6.00
2018-02-22T22:02:33.767Z,6.00
2018-02-22T22:05:00.756Z,6.00
2018-02-22T22:07:27.745Z,6.10
2018-02-22T22:09:55.490Z,6.00
2018-02-22T22:12:22.472Z,6.00
2018-02-22T22:14:49.465Z,6.00
2018-02-22T22:17:16.480Z,6.00
2018-02-22T22:19:44.195Z,6.00
2018-02-22T22:22:11.951Z,6.00
2018-02-22T22:24:38.935Z,6.00
2018-02-22T22:27:05.922Z,6.00
2018-02-22T22:29:32.908Z,6.00
2018-02-22T22:32:00.662Z,6.00
2018-02-22T22:34:28.420Z,6.00
2018-02-22T22:36:56.183Z,6.00
2018-02-22T22:39:23.172Z,6.00
2018-02-22T22:41:50.255Z,6.00
2018-02-22T22:44:17.235Z,6.00
2018-02-22T22:46:45.002Z,6.00
2018-02-22T22:49:12.757Z,6.00
2018-02-22T22:51:40.510Z,6.00
2018-02-22T22:54:07.499Z,6.00
2018-02-22T22:56:34.487Z,6.00
2018-02-22T22:59:01.469Z,6.00
2018-02-22T23:01:29.216Z,6.00
2018-02-22T23:03:56.968Z,6.00
2018-02-22T23:06:23.957Z,6.00
2018-02-22T23:08:50.943Z,6.00
2018-02-22T23:11:17.929Z,6.00
2018-02-22T23:13:45.675Z,6.00
2018-02-22T23:16:13.429Z,6.00
2018-02-22T23:18:40.408Z,5.90
2018-02-22T23:21:07.395Z,6.00
2018-02-22T23:23:34.375Z,5.90
2018-02-22T23:26:02.124Z,5.90
2018-02-22T23:28:29.108Z,6.00
2018-02-22T23:30:56.205Z,6.00
2018-02-22T23:33:23.330Z,6.00
2018-02-22T23:35:50.420Z,5.90
2018-02-22T23:38:17.413Z,5.90
2018-02-22T23:40:49.207Z,5.90
2018-02-22T23:43:16.202Z,6.00
2018-02-22T23:45:43.192Z,6.00
2018-02-22T23:48:10.184Z,5.90
2018-02-22T23:50:37.180Z,5.90
2018-02-22T23:53:04.174Z,5.90
2018-02-22T23:55:31.924Z,5.90
2018-02-22T23:57:59.688Z,5.90
